Etusivu
METAR-TAF:

METAR-TAF

Lentoasemat :

Corrientes, Argentiina

Leveyspiiri: 27-27S, Pituuspiiri: 058-46W, korkeus merenpinnasta: 62 m

Tämänhetkinen sää

Tämä raportti tehtiin 13 minuuttia sitten, kello 20.00 UTC
Tuuli 4 kn pohjoisesta/koillisesta
Lämpötila 37°C
Kosteus 40%
Ilmanpaine 1007 hPa
Näkyvyys 10 km tai enemmän
Muutamia pilviä 3000 ft:n korkeudessa

METAR: SARC 222000Z 02004KT 9999 FEW030 37/21 Q1007

Aika: 17:13 (20:13 UTC)


TAF: puuttuu

Säähavainnot ja -ennusteet yli 4000 lentoasemalta (METAR- ja TAF-raportit).

Käytössä olevat sääasemat on merkitty karttaan keltaisilla ja punaisilla pisteillä.

Aseta hiiri pisteen päälle nähdäksesi sääaseman nimen.

Klikkaa sitten nähdäksesi säähavainnot ja -ennusteet.

Kartan vaihtaminen: klikkaa mustalla rastilla varustettuja vihreitä pisteitä, niin voit zoomata sisään; viivalla varustettua vihreää pistettä, niin voit zoomata ulos tai vihreitä nuolia, niin pääset viereisille kartoille.


METAR-TAF: